sensor_id;sensor_type;location;lat;lon;timestamp;temperature;humidity
44707;DHT22;30433;45.596;8.408;2023-05-07T06:10:26;16.20;99.90
44707;DHT22;30433;45.596;8.408;2023-05-07T06:16:28;16.40;99.90
44707;DHT22;30433;45.596;8.408;2023-05-07T06:22:30;16.90;99.90
44707;DHT22;30433;45.596;8.408;2023-05-07T06:28:33;17.00;99.90
44707;DHT22;30433;45.596;8.408;2023-05-07T06:34:36;17.20;99.90
44707;DHT22;30433;45.596;8.408;2023-05-07T06:40:38;17.00;99.90
44707;DHT22;30433;45.596;8.408;2023-05-07T06:46:41;17.00;99.90
44707;DHT22;30433;45.596;8.408;2023-05-07T06:52:43;17.00;99.90
44707;DHT22;30433;45.596;8.408;2023-05-07T06:58:45;17.20;99.90
44707;DHT22;30433;45.596;8.408;2023-05-07T07:04:48;17.20;99.90
44707;DHT22;30433;45.596;8.408;2023-05-07T07:10:50;17.00;99.90
44707;DHT22;30433;45.596;8.408;2023-05-07T07:16:52;17.20;99.90
44707;DHT22;30433;45.596;8.408;2023-05-07T07:22:55;17.30;99.90
44707;DHT22;30433;45.596;8.408;2023-05-07T07:28:57;17.40;99.90
44707;DHT22;30433;45.596;8.408;2023-05-07T07:34:59;17.50;99.90
44707;DHT22;30433;45.596;8.408;2023-05-07T07:41:02;17.60;99.90
44707;DHT22;30433;45.596;8.408;2023-05-07T07:47:04;17.60;99.90
44707;DHT22;30433;45.596;8.408;2023-05-07T07:53:06;17.60;99.90
44707;DHT22;30433;45.596;8.408;2023-05-07T07:59:09;17.80;99.90
44707;DHT22;30433;45.596;8.408;2023-05-07T08:05:11;17.60;99.90
44707;DHT22;30433;45.596;8.408;2023-05-07T08:11:13;17.90;99.90
44707;DHT22;30433;45.596;8.408;2023-05-07T08:17:17;18.20;99.90
44707;DHT22;30433;45.596;8.408;2023-05-07T08:23:19;18.40;99.90
44707;DHT22;30433;45.596;8.408;2023-05-07T08:29:20;18.50;99.90
44707;DHT22;30433;45.596;8.408;2023-05-07T08:35:24;18.50;99.90
44707;DHT22;30433;45.596;8.408;2023-05-07T08:41:27;18.60;99.90
44707;DHT22;30433;45.596;8.408;2023-05-07T08:47:29;19.00;99.90
44707;DHT22;30433;45.596;8.408;2023-05-07T08:53:35;18.90;99.90
44707;DHT22;30433;45.596;8.408;2023-05-07T08:59:36;18.90;99.90
44707;DHT22;30433;45.596;8.408;2023-05-07T09:05:41;19.30;99.90
44707;DHT22;30433;45.596;8.408;2023-05-07T09:11:45;19.60;99.90
44707;DHT22;30433;45.596;8.408;2023-05-07T09:17:47;19.70;99.90
44707;DHT22;30433;45.596;8.408;2023-05-07T09:23:50;19.70;99.90
44707;DHT22;30433;45.596;8.408;2023-05-07T09:29:54;19.60;99.90
44707;DHT22;30433;45.596;8.408;2023-05-07T09:35:55;19.90;99.90
44707;DHT22;30433;45.596;8.408;2023-05-07T09:41:57;20.00;99.90
44707;DHT22;30433;45.596;8.408;2023-05-07T09:48:03;20.20;99.90
44707;DHT22;30433;45.596;8.408;2023-05-07T09:54:06;20.30;99.90
44707;DHT22;30433;45.596;8.408;2023-05-07T10:00:08;20.80;99.90
44707;DHT22;30433;45.596;8.408;2023-05-07T10:06:12;20.70;99.90
44707;DHT22;30433;45.596;8.408;2023-05-07T10:12:14;20.90;99.90
44707;DHT22;30433;45.596;8.408;2023-05-07T10:18:16;20.90;99.90
44707;DHT22;30433;45.596;8.408;2023-05-07T10:24:21;21.20;99.90
44707;DHT22;30433;45.596;8.408;2023-05-07T10:30:26;21.50;99.90
44707;DHT22;30433;45.596;8.408;2023-05-07T10:36:28;21.70;99.90
44707;DHT22;30433;45.596;8.408;2023-05-07T10:42:32;21.80;99.90
44707;DHT22;30433;45.596;8.408;2023-05-07T10:48:34;21.40;99.90
44707;DHT22;30433;45.596;8.408;2023-05-07T11:01:14;21.00;99.90
44707;DHT22;30433;45.596;8.408;2023-05-07T11:13:43;21.90;99.90
44707;DHT22;30433;45.596;8.408;2023-05-07T11:19:50;22.10;99.90
44707;DHT22;30433;45.596;8.408;2023-05-07T11:25:52;21.80;99.50
44707;DHT22;30433;45.596;8.408;2023-05-07T11:31:59;21.30;99.50
44707;DHT22;30433;45.596;8.408;2023-05-07T11:38:02;21.30;99.90
44707;DHT22;30433;45.596;8.408;2023-05-07T11:44:04;21.20;99.90
44707;DHT22;30433;45.596;8.408;2023-05-07T11:50:07;21.20;99.90
44707;DHT22;30433;45.596;8.408;2023-05-07T11:56:13;21.20;99.70
44707;DHT22;30433;45.596;8.408;2023-05-07T12:02:15;21.40;99.50
44707;DHT22;30433;45.596;8.408;2023-05-07T12:08:17;22.10;99.80
44707;DHT22;30433;45.596;8.408;2023-05-07T12:14:20;22.30;99.20
44707;DHT22;30433;45.596;8.408;2023-05-07T12:20:22;22.50;97.40
44707;DHT22;30433;45.596;8.408;2023-05-07T12:26:25;22.80;98.70
44707;DHT22;30433;45.596;8.408;2023-05-07T12:32:28;23.00;97.40
44707;DHT22;30433;45.596;8.408;2023-05-07T12:38:33;23.20;96.70
44707;DHT22;30433;45.596;8.408;2023-05-07T12:44:36;23.20;96.00
44707;DHT22;30433;45.596;8.408;2023-05-07T12:50:39;22.60;95.80
44707;DHT22;30433;45.596;8.408;2023-05-07T12:56:43;22.40;96.00
44707;DHT22;30433;45.596;8.408;2023-05-07T13:02:45;22.50;97.50
44707;DHT22;30433;45.596;8.408;2023-05-07T13:08:49;22.20;98.70
44707;DHT22;30433;45.596;8.408;2023-05-07T13:14:50;22.30;97.20
44707;DHT22;30433;45.596;8.408;2023-05-07T13:20:52;22.20;97.00
44707;DHT22;30433;45.596;8.408;2023-05-07T13:26:56;22.30;97.20
44707;DHT22;30433;45.596;8.408;2023-05-07T13:32:58;22.40;96.80
44707;DHT22;30433;45.596;8.408;2023-05-07T13:39:00;22.40;97.80
44707;DHT22;30433;45.596;8.408;2023-05-07T13:45:03;22.30;96.90
44707;DHT22;30433;45.596;8.408;2023-05-07T13:51:05;22.40;96.90
44707;DHT22;30433;45.596;8.408;2023-05-07T13:57:07;22.90;96.70
44707;DHT22;30433;45.596;8.408;2023-05-07T14:03:10;22.70;95.80
44707;DHT22;30433;45.596;8.408;2023-05-07T14:09:12;22.40;95.70
44707;DHT22;30433;45.596;8.408;2023-05-07T14:15:14;22.30;96.40
44707;DHT22;30433;45.596;8.408;2023-05-07T14:21:17;22.00;96.80
44707;DHT22;30433;45.596;8.408;2023-05-07T14:27:19;22.20;96.90
44707;DHT22;30433;45.596;8.408;2023-05-07T14:33:21;22.30;96.70
44707;DHT22;30433;45.596;8.408;2023-05-07T14:39:24;22.60;96.90
44707;DHT22;30433;45.596;8.408;2023-05-07T14:45:26;22.40;95.80
44707;DHT22;30433;45.596;8.408;2023-05-07T14:51:28;22.30;96.80
44707;DHT22;30433;45.596;8.408;2023-05-07T14:57:32;22.30;95.90
44707;DHT22;30433;45.596;8.408;2023-05-07T15:03:35;22.40;96.00
44707;DHT22;30433;45.596;8.408;2023-05-07T15:09:37;22.30;96.20
44707;DHT22;30433;45.596;8.408;2023-05-07T15:15:41;22.40;97.10
44707;DHT22;30433;45.596;8.408;2023-05-07T15:21:43;22.30;96.20
44707;DHT22;30433;45.596;8.408;2023-05-07T15:27:44;22.20;97.60
44707;DHT22;30433;45.596;8.408;2023-05-07T15:33:48;22.30;96.30
44707;DHT22;30433;45.596;8.408;2023-05-07T15:39:50;22.20;97.00
44707;DHT22;30433;45.596;8.408;2023-05-07T15:45:52;22.10;96.60
44707;DHT22;30433;45.596;8.408;2023-05-07T15:51:56;22.00;96.60
44707;DHT22;30433;45.596;8.408;2023-05-07T15:57:58;22.00;97.50
44707;DHT22;30433;45.596;8.408;2023-05-07T16:04:00;21.90;97.40
44707;DHT22;30433;45.596;8.408;2023-05-07T16:10:04;21.90;97.00
44707;DHT22;30433;45.596;8.408;2023-05-07T16:16:07;21.70;98.10
44707;DHT22;30433;45.596;8.408;2023-05-07T16:22:09;21.80;98.60
44707;DHT22;30433;45.596;8.408;2023-05-07T16:28:12;21.60;99.90
44707;DHT22;30433;45.596;8.408;2023-05-07T16:34:14;21.50;99.90
44707;DHT22;30433;45.596;8.408;2023-05-07T16:40:16;21.50;99.90
44707;DHT22;30433;45.596;8.408;2023-05-07T16:46:20;21.40;99.90
44707;DHT22;30433;45.596;8.408;2023-05-07T16:52:22;21.30;99.90
44707;DHT22;30433;45.596;8.408;2023-05-07T16:58:24;21.30;99.90
44707;DHT22;30433;45.596;8.408;2023-05-07T17:11:05;21.10;99.90
44707;DHT22;30433;45.596;8.408;2023-05-07T17:17:07;21.00;99.90
44707;DHT22;30433;45.596;8.408;2023-05-07T17:23:09;20.90;99.90
44707;DHT22;30433;45.596;8.408;2023-05-07T17:29:12;20.80;99.90
44707;DHT22;30433;45.596;8.408;2023-05-07T17:35:15;20.70;99.90
44707;DHT22;30433;45.596;8.408;2023-05-07T17:41:16;20.60;99.90
44707;DHT22;30433;45.596;8.408;2023-05-07T17:47:20;20.50;99.90
44707;DHT22;30433;45.596;8.408;2023-05-07T17:53:22;20.50;99.90
44707;DHT22;30433;45.596;8.408;2023-05-07T17:59:24;20.40;99.90
44707;DHT22;30433;45.596;8.408;2023-05-07T18:05:28;20.30;99.90
44707;DHT22;30433;45.596;8.408;2023-05-07T18:11:30;20.20;99.90
44707;DHT22;30433;45.596;8.408;2023-05-07T18:17:32;20.20;99.90
44707;DHT22;30433;45.596;8.408;2023-05-07T18:23:36;20.10;99.90
44707;DHT22;30433;45.596;8.408;2023-05-07T18:29:38;20.00;99.90
44707;DHT22;30433;45.596;8.408;2023-05-07T18:35:40;19.80;99.90
44707;DHT22;30433;45.596;8.408;2023-05-07T18:41:43;19.70;99.90
44707;DHT22;30433;45.596;8.408;2023-05-07T18:47:45;19.70;99.90
44707;DHT22;30433;45.596;8.408;2023-05-07T18:53:47;19.60;99.90
44707;DHT22;30433;45.596;8.408;2023-05-07T18:59:52;19.50;99.90
44707;DHT22;30433;45.596;8.408;2023-05-07T19:05:54;19.30;99.90
44707;DHT22;30433;45.596;8.408;2023-05-07T19:11:58;19.30;99.90
44707;DHT22;30433;45.596;8.408;2023-05-07T19:18:03;19.40;99.90
44707;DHT22;30433;45.596;8.408;2023-05-07T19:24:05;18.70;99.90
44707;DHT22;30433;45.596;8.408;2023-05-07T19:30:08;18.90;99.90
44707;DHT22;30433;45.596;8.408;2023-05-07T19:36:11;18.30;99.90
44707;DHT22;30433;45.596;8.408;2023-05-07T19:42:13;18.20;99.90
44707;DHT22;30433;45.596;8.408;2023-05-07T19:48:15;18.00;99.90
44707;DHT22;30433;45.596;8.408;2023-05-07T19:54:19;18.00;99.90
44707;DHT22;30433;45.596;8.408;2023-05-07T20:00:22;17.90;99.90
44707;DHT22;30433;45.596;8.408;2023-05-07T20:06:26;18.10;99.90
44707;DHT22;30433;45.596;8.408;2023-05-07T20:12:29;18.10;99.90
44707;DHT22;30433;45.596;8.408;2023-05-07T20:18:31;18.10;99.90
44707;DHT22;30433;45.596;8.408;2023-05-07T20:24:35;18.00;99.90
44707;DHT22;30433;45.596;8.408;2023-05-07T20:30:38;18.10;99.90
44707;DHT22;30433;45.596;8.408;2023-05-07T20:36:40;18.00;99.90
44707;DHT22;30433;45.596;8.408;2023-05-07T20:42:42;17.90;99.90
44707;DHT22;30433;45.596;8.408;2023-05-07T20:48:46;17.90;99.90
44707;DHT22;30433;45.596;8.408;2023-05-07T20:54:47;17.90;99.90
44707;DHT22;30433;45.596;8.408;2023-05-07T21:00:49;17.80;99.90
44707;DHT22;30433;45.596;8.408;2023-05-07T21:06:53;17.90;99.90
44707;DHT22;30433;45.596;8.408;2023-05-07T21:12:55;17.90;99.90
44707;DHT22;30433;45.596;8.408;2023-05-07T21:18:56;17.60;99.90
44707;DHT22;30433;45.596;8.408;2023-05-07T21:25:00;17.40;99.90
44707;DHT22;30433;45.596;8.408;2023-05-07T21:31:02;17.30;99.90
44707;DHT22;30433;45.596;8.408;2023-05-07T21:37:03;17.40;99.90
44707;DHT22;30433;45.596;8.408;2023-05-07T21:43:07;17.50;99.90
44707;DHT22;30433;45.596;8.408;2023-05-07T21:49:08;17.50;99.90
44707;DHT22;30433;45.596;8.408;2023-05-07T21:55:11;17.60;99.90
44707;DHT22;30433;45.596;8.408;2023-05-07T22:01:14;17.50;99.90
44707;DHT22;30433;45.596;8.408;2023-05-07T22:07:16;17.40;99.90
44707;DHT22;30433;45.596;8.408;2023-05-07T22:13:18;17.30;99.90
44707;DHT22;30433;45.596;8.408;2023-05-07T22:19:21;17.40;99.90
44707;DHT22;30433;45.596;8.408;2023-05-07T22:25:23;17.30;99.90
44707;DHT22;30433;45.596;8.408;2023-05-07T22:31:25;17.30;99.90
44707;DHT22;30433;45.596;8.408;2023-05-07T22:37:28;17.20;99.90
44707;DHT22;30433;45.596;8.408;2023-05-07T22:43:30;17.20;99.90
44707;DHT22;30433;45.596;8.408;2023-05-07T22:49:32;17.20;99.90
44707;DHT22;30433;45.596;8.408;2023-05-07T22:55:36;17.40;99.90
44707;DHT22;30433;45.596;8.408;2023-05-07T23:01:38;17.30;99.90
44707;DHT22;30433;45.596;8.408;2023-05-07T23:07:40;17.20;99.90
44707;DHT22;30433;45.596;8.408;2023-05-07T23:13:43;17.10;99.90
44707;DHT22;30433;45.596;8.408;2023-05-07T23:19:45;17.20;99.90
44707;DHT22;30433;45.596;8.408;2023-05-07T23:25:49;17.10;99.90
44707;DHT22;30433;45.596;8.408;2023-05-07T23:31:52;17.00;99.90
44707;DHT22;30433;45.596;8.408;2023-05-07T23:37:54;17.10;99.90
44707;DHT22;30433;45.596;8.408;2023-05-07T23:43:56;17.20;99.90
44707;DHT22;30433;45.596;8.408;2023-05-07T23:49:59;17.20;99.90
44707;DHT22;30433;45.596;8.408;2023-05-07T23:56:01;17.10;99.90
